createdAt,value
2019-01-20T00:00:29.751Z,0
2019-01-20T00:01:39.889Z,0
2019-01-20T00:02:50.056Z,0
2019-01-20T00:04:00.246Z,0
2019-01-20T00:05:10.402Z,0
2019-01-20T00:06:20.589Z,0
2019-01-20T00:07:30.764Z,0
2019-01-20T00:08:40.883Z,0
2019-01-20T00:09:51.040Z,0
2019-01-20T00:11:01.163Z,0
2019-01-20T00:12:11.059Z,0
2019-01-20T00:13:21.185Z,0
2019-01-20T00:14:31.330Z,0
2019-01-20T00:15:41.499Z,0
2019-01-20T00:16:51.641Z,0
2019-01-20T00:18:01.800Z,0
2019-01-20T00:19:11.668Z,0
2019-01-20T00:20:22.252Z,0
2019-01-20T00:21:32.465Z,0
2019-01-20T00:22:42.602Z,0
2019-01-20T00:23:52.776Z,0
2019-01-20T00:25:03.046Z,0
2019-01-20T00:26:13.197Z,0
2019-01-20T00:27:23.385Z,0
2019-01-20T00:28:33.571Z,0
2019-01-20T00:29:43.718Z,0
2019-01-20T00:30:53.861Z,0
2019-01-20T00:32:03.969Z,0
2019-01-20T00:33:14.095Z,0
2019-01-20T00:34:24.793Z,0
2019-01-20T00:35:34.931Z,0
2019-01-20T00:36:45.042Z,0
2019-01-20T00:37:55.196Z,0
2019-01-20T00:39:05.337Z,0
2019-01-20T00:40:15.511Z,0
2019-01-20T00:41:31.540Z,0
2019-01-20T00:42:41.673Z,0
2019-01-20T00:43:51.795Z,0
2019-01-20T00:45:09.796Z,0
2019-01-20T00:46:19.946Z,0
2019-01-20T00:47:30.067Z,0
2019-01-20T00:48:40.242Z,0
2019-01-20T00:49:50.375Z,0
2019-01-20T00:51:00.498Z,0
2019-01-20T00:52:11.967Z,0
2019-01-20T00:53:21.558Z,0
2019-01-20T00:54:31.692Z,0
2019-01-20T00:55:41.814Z,0
2019-01-20T00:56:51.969Z,0
2019-01-20T00:58:02.085Z,0
2019-01-20T00:59:12.201Z,0
2019-01-20T01:00:22.370Z,0
2019-01-20T01:01:32.511Z,0
2019-01-20T01:02:42.362Z,0
2019-01-20T01:03:52.528Z,0
2019-01-20T01:05:02.725Z,0
2019-01-20T01:06:12.906Z,0
2019-01-20T01:07:23.023Z,0
2019-01-20T01:08:33.141Z,0
2019-01-20T01:09:43.262Z,0
2019-01-20T01:10:53.389Z,0
2019-01-20T01:12:03.497Z,0
2019-01-20T01:13:13.605Z,0
2019-01-20T01:14:23.467Z,0
2019-01-20T01:15:33.570Z,0
2019-01-20T01:16:43.706Z,0
2019-01-20T01:17:53.605Z,0
2019-01-20T01:19:03.725Z,0
2019-01-20T01:20:13.932Z,0
2019-01-20T01:21:24.026Z,0
2019-01-20T01:22:34.164Z,0
2019-01-20T01:23:44.301Z,0
2019-01-20T01:24:54.415Z,0
2019-01-20T01:26:04.543Z,0
2019-01-20T01:27:14.656Z,0
2019-01-20T01:28:24.798Z,0
2019-01-20T01:29:34.922Z,0
2019-01-20T01:30:45.027Z,0
2019-01-20T01:31:55.131Z,0
2019-01-20T01:33:05.255Z,0
2019-01-20T01:34:15.382Z,0
2019-01-20T01:35:25.544Z,0
2019-01-20T01:36:35.637Z,0
2019-01-20T01:37:45.488Z,0
2019-01-20T01:38:55.601Z,0
2019-01-20T01:40:05.736Z,0
2019-01-20T01:41:15.839Z,0
2019-01-20T01:42:25.973Z,0
2019-01-20T01:43:36.091Z,0
2019-01-20T01:44:46.208Z,0
2019-01-20T01:45:56.360Z,0
2019-01-20T01:47:06.469Z,0
2019-01-20T01:48:16.577Z,0
2019-01-20T01:49:26.685Z,0
2019-01-20T01:50:36.804Z,0
2019-01-20T01:51:46.940Z,0
2019-01-20T01:52:57.081Z,0
2019-01-20T01:54:07.473Z,0
2019-01-20T01:55:17.074Z,0
2019-01-20T01:56:27.187Z,0
2019-01-20T01:57:37.290Z,0
2019-01-20T01:58:47.404Z,0
2019-01-20T01:59:57.518Z,0
2019-01-20T02:01:07.393Z,0
2019-01-20T02:02:17.143Z,0
2019-01-20T02:03:27.255Z,0
2019-01-20T02:04:37.361Z,0
2019-01-20T02:05:47.459Z,0
2019-01-20T02:06:57.563Z,0
2019-01-20T02:08:07.423Z,0
2019-01-20T02:09:17.554Z,0
2019-01-20T02:10:27.676Z,0
2019-01-20T02:11:37.793Z,0
2019-01-20T02:12:47.918Z,0
2019-01-20T02:13:58.024Z,0
2019-01-20T02:15:08.194Z,0
2019-01-20T02:16:18.307Z,0
2019-01-20T02:17:28.415Z,0
2019-01-20T02:18:38.568Z,0
2019-01-20T02:19:48.696Z,0
2019-01-20T02:20:58.828Z,0
2019-01-20T02:22:08.923Z,0
2019-01-20T02:23:19.052Z,0
2019-01-20T02:24:29.166Z,0
2019-01-20T02:25:39.291Z,0
2019-01-20T02:26:49.037Z,0
2019-01-20T02:27:59.152Z,0
2019-01-20T02:29:09.260Z,0
2019-01-20T02:30:19.375Z,0
2019-01-20T02:31:29.505Z,0
2019-01-20T02:32:39.619Z,0
2019-01-20T02:33:49.735Z,0
2019-01-20T02:34:59.596Z,0
2019-01-20T02:36:09.706Z,0
2019-01-20T02:37:19.861Z,0
2019-01-20T02:38:29.991Z,0
2019-01-20T02:39:40.098Z,0
2019-01-20T02:40:50.276Z,0
2019-01-20T02:42:04.829Z,0
2019-01-20T02:43:15.063Z,0
2019-01-20T02:44:25.179Z,0
2019-01-20T02:45:35.290Z,0
2019-01-20T02:46:45.392Z,0
2019-01-20T02:47:55.507Z,0
2019-01-20T02:49:05.655Z,0
2019-01-20T02:50:15.778Z,0
2019-01-20T02:51:25.886Z,0
2019-01-20T02:52:36.015Z,0
2019-01-20T02:53:46.142Z,0
2019-01-20T02:54:56.260Z,0
2019-01-20T02:56:06.370Z,0
2019-01-20T02:57:16.500Z,0
2019-01-20T02:58:26.625Z,0
2019-01-20T02:59:36.493Z,0
2019-01-20T03:00:46.617Z,0
2019-01-20T03:01:56.736Z,0
2019-01-20T03:03:06.864Z,0
2019-01-20T03:04:16.970Z,0
2019-01-20T03:05:27.148Z,0
2019-01-20T03:06:37.270Z,0
2019-01-20T03:07:47.371Z,0
2019-01-20T03:08:57.507Z,0
2019-01-20T03:10:07.626Z,0
2019-01-20T03:11:17.751Z,0
2019-01-20T03:12:27.868Z,0
2019-01-20T03:13:37.977Z,0
2019-01-20T03:14:48.110Z,0
2019-01-20T03:15:58.230Z,0
2019-01-20T03:17:08.342Z,0
2019-01-20T03:18:18.460Z,0
2019-01-20T03:19:28.604Z,0
2019-01-20T03:20:38.752Z,0
2019-01-20T03:21:48.867Z,0
2019-01-20T03:22:58.974Z,0
2019-01-20T03:24:09.097Z,0
2019-01-20T03:25:19.226Z,0
2019-01-20T03:26:29.352Z,0
2019-01-20T03:27:39.463Z,0
2019-01-20T03:28:49.565Z,0
2019-01-20T03:29:59.658Z,0
2019-01-20T03:31:09.825Z,0
2019-01-20T03:32:20.093Z,0
2019-01-20T03:33:30.218Z,0
2019-01-20T03:34:40.331Z,0
2019-01-20T03:35:50.424Z,0
2019-01-20T03:37:00.606Z,0
2019-01-20T03:38:10.779Z,0
2019-01-20T03:39:20.895Z,0
2019-01-20T03:40:30.730Z,0
2019-01-20T03:41:40.912Z,0
2019-01-20T03:42:50.754Z,0
2019-01-20T03:44:00.898Z,0
2019-01-20T03:45:10.748Z,0
2019-01-20T03:46:20.865Z,0
2019-01-20T03:47:31.216Z,0
2019-01-20T03:48:41.104Z,0
2019-01-20T03:49:50.960Z,0
2019-01-20T03:51:01.059Z,0
2019-01-20T03:52:11.177Z,0
2019-01-20T03:53:21.280Z,0
2019-01-20T03:54:31.139Z,0
2019-01-20T03:55:41.267Z,0
2019-01-20T03:56:51.118Z,0
2019-01-20T03:58:01.238Z,0
2019-01-20T03:59:11.400Z,0
2019-01-20T04:00:21.494Z,0
2019-01-20T04:01:31.607Z,0
2019-01-20T04:02:41.718Z,0
2019-01-20T04:03:51.796Z,0
2019-01-20T04:05:01.935Z,0
2019-01-20T04:06:13.012Z,0
2019-01-20T04:07:23.184Z,0
2019-01-20T04:08:33.303Z,0
2019-01-20T04:09:43.420Z,0
2019-01-20T04:10:53.534Z,0
2019-01-20T04:12:03.644Z,0
2019-01-20T04:13:13.779Z,0
2019-01-20T04:14:23.873Z,0
2019-01-20T04:15:33.978Z,0
2019-01-20T04:16:44.140Z,0
2019-01-20T04:17:54.230Z,0
2019-01-20T04:19:04.111Z,0
2019-01-20T04:20:14.290Z,0
2019-01-20T04:21:24.397Z,0
2019-01-20T04:22:34.529Z,0
2019-01-20T04:23:44.668Z,0
2019-01-20T04:24:54.820Z,0
2019-01-20T04:26:04.921Z,0
2019-01-20T04:27:14.697Z,0
2019-01-20T04:28:24.563Z,0
2019-01-20T04:29:34.679Z,0
2019-01-20T04:30:44.534Z,0
2019-01-20T04:31:54.273Z,0
2019-01-20T04:33:04.135Z,0
2019-01-20T04:34:14.271Z,0
2019-01-20T04:35:24.388Z,0
2019-01-20T04:36:34.485Z,0
2019-01-20T04:37:44.607Z,0
2019-01-20T04:38:54.718Z,0
2019-01-20T04:40:05.021Z,0
2019-01-20T04:41:15.169Z,0
2019-01-20T04:42:33.688Z,0
2019-01-20T04:43:43.783Z,0
2019-01-20T04:44:53.876Z,0
2019-01-20T04:46:03.635Z,0
2019-01-20T04:47:13.736Z,0
2019-01-20T04:48:23.840Z,0
2019-01-20T04:49:33.952Z,0
2019-01-20T04:50:44.062Z,0
2019-01-20T04:51:54.165Z,0
2019-01-20T04:53:04.273Z,0
2019-01-20T04:54:14.132Z,0
2019-01-20T04:55:23.974Z,0
2019-01-20T04:56:34.095Z,0
2019-01-20T04:57:44.209Z,0
2019-01-20T04:58:54.310Z,0
2019-01-20T05:00:04.408Z,0
2019-01-20T05:01:14.532Z,0
2019-01-20T05:02:24.647Z,0
2019-01-20T05:03:34.758Z,0
2019-01-20T05:04:44.895Z,0
2019-01-20T05:05:54.744Z,0
2019-01-20T05:07:04.855Z,0
2019-01-20T05:08:14.961Z,0
2019-01-20T05:09:24.805Z,0
2019-01-20T05:10:34.895Z,0
2019-01-20T05:11:45.017Z,0
2019-01-20T05:12:55.120Z,0
2019-01-20T05:14:04.978Z,0
2019-01-20T05:15:15.092Z,0
2019-01-20T05:16:25.203Z,0
2019-01-20T05:17:35.302Z,0
2019-01-20T05:18:45.421Z,0
2019-01-20T05:19:55.541Z,0
2019-01-20T05:21:05.645Z,0
2019-01-20T05:22:15.763Z,0
2019-01-20T05:23:26.007Z,0
2019-01-20T05:24:36.130Z,0
2019-01-20T05:25:46.247Z,0
2019-01-20T05:26:56.409Z,0
2019-01-20T05:28:06.507Z,0
2019-01-20T05:29:16.621Z,0
2019-01-20T05:30:26.720Z,0
2019-01-20T05:31:36.465Z,0
2019-01-20T05:32:46.598Z,0
2019-01-20T05:33:56.703Z,0
2019-01-20T05:35:06.916Z,0
2019-01-20T05:36:16.668Z,0
2019-01-20T05:37:26.756Z,0
2019-01-20T05:38:36.492Z,0
2019-01-20T05:39:46.599Z,0
2019-01-20T05:40:56.696Z,0
2019-01-20T05:42:06.805Z,0
2019-01-20T05:43:16.930Z,0
2019-01-20T05:44:27.035Z,0
2019-01-20T05:45:37.134Z,0
2019-01-20T05:46:47.250Z,0
2019-01-20T05:47:57.183Z,0
2019-01-20T05:49:07.299Z,0
2019-01-20T05:50:17.166Z,0
2019-01-20T05:51:27.284Z,0
2019-01-20T05:52:37.380Z,0
2019-01-20T05:53:47.503Z,0
2019-01-20T05:54:57.594Z,0
2019-01-20T05:56:09.313Z,0
2019-01-20T05:57:19.422Z,0
2019-01-20T05:58:29.531Z,0
2019-01-20T05:59:39.663Z,0
2019-01-20T06:00:49.768Z,0
2019-01-20T06:01:59.861Z,0
2019-01-20T06:03:09.961Z,0
2019-01-20T06:04:20.071Z,0
2019-01-20T06:05:30.190Z,0
2019-01-20T06:06:40.405Z,0
2019-01-20T06:07:50.150Z,0
2019-01-20T06:09:01.376Z,0
2019-01-20T06:10:11.245Z,0
2019-01-20T06:11:21.339Z,0
2019-01-20T06:12:31.448Z,0
2019-01-20T06:13:41.549Z,0
2019-01-20T06:14:51.311Z,0
2019-01-20T06:16:01.433Z,0
2019-01-20T06:17:11.563Z,0
2019-01-20T06:18:22.322Z,0
2019-01-20T06:19:32.455Z,0
2019-01-20T06:20:42.547Z,0
2019-01-20T06:21:52.643Z,0
2019-01-20T06:23:02.380Z,0
2019-01-20T06:24:12.122Z,0
2019-01-20T06:25:22.244Z,0
2019-01-20T06:26:32.387Z,0
2019-01-20T06:27:42.486Z,0
2019-01-20T06:28:53.572Z,0
2019-01-20T06:30:03.714Z,0
2019-01-20T06:31:13.810Z,0
2019-01-20T06:32:23.915Z,0
2019-01-20T06:33:34.022Z,0
2019-01-20T06:34:44.123Z,0
2019-01-20T06:35:54.239Z,0
2019-01-20T06:37:04.402Z,0
2019-01-20T06:38:14.522Z,0
2019-01-20T06:39:24.835Z,0
2019-01-20T06:40:34.923Z,0
2019-01-20T06:41:45.029Z,0
2019-01-20T06:43:01.592Z,0
2019-01-20T06:44:12.151Z,0
2019-01-20T06:45:21.988Z,0
2019-01-20T06:46:32.092Z,0
2019-01-20T06:47:42.181Z,0
2019-01-20T06:48:52.285Z,0
2019-01-20T06:50:02.375Z,0
2019-01-20T06:51:12.531Z,0
2019-01-20T06:52:22.636Z,0
2019-01-20T06:53:33.468Z,0
2019-01-20T06:54:43.331Z,0
2019-01-20T06:55:53.434Z,0
2019-01-20T06:57:03.544Z,0
2019-01-20T06:58:13.649Z,0
2019-01-20T06:59:23.750Z,0
2019-01-20T07:00:33.889Z,0
2019-01-20T07:01:44.017Z,0
2019-01-20T07:02:54.126Z,0
2019-01-20T07:04:04.434Z,0
2019-01-20T07:05:14.294Z,5
2019-01-20T07:06:24.411Z,5
2019-01-20T07:07:34.543Z,5
2019-01-20T07:08:44.647Z,5
2019-01-20T07:09:54.769Z,5
2019-01-20T07:11:04.867Z,5
2019-01-20T07:12:14.982Z,5
2019-01-20T07:13:25.089Z,5
2019-01-20T07:14:35.196Z,10
2019-01-20T07:15:45.355Z,10
2019-01-20T07:16:55.451Z,10
2019-01-20T07:18:05.547Z,10
2019-01-20T07:19:15.694Z,10
2019-01-20T07:20:25.814Z,10
2019-01-20T07:21:35.929Z,15
2019-01-20T07:22:46.034Z,15
2019-01-20T07:23:56.139Z,15
2019-01-20T07:25:06.265Z,15
2019-01-20T07:26:16.377Z,15
2019-01-20T07:27:26.506Z,20
2019-01-20T07:28:36.614Z,20
2019-01-20T07:29:46.714Z,20
2019-01-20T07:30:56.817Z,20
2019-01-20T07:32:06.949Z,20
2019-01-20T07:33:16.806Z,25
2019-01-20T07:34:27.486Z,25
2019-01-20T07:35:37.699Z,25
2019-01-20T07:36:47.800Z,25
2019-01-20T07:37:57.974Z,30
2019-01-20T07:39:08.079Z,30
2019-01-20T07:40:18.221Z,30
2019-01-20T07:41:27.980Z,30
2019-01-20T07:42:38.092Z,35
2019-01-20T07:43:48.223Z,35
2019-01-20T07:44:58.377Z,35
2019-01-20T07:46:08.484Z,35
2019-01-20T07:47:18.589Z,35
2019-01-20T07:48:28.713Z,40
2019-01-20T07:49:38.813Z,40
2019-01-20T07:50:50.266Z,40
2019-01-20T07:52:00.378Z,45
2019-01-20T07:53:10.500Z,45
2019-01-20T07:54:20.616Z,45
2019-01-20T07:55:30.751Z,45
2019-01-20T07:56:40.869Z,50
2019-01-20T07:57:51.005Z,50
2019-01-20T07:59:01.158Z,55
2019-01-20T08:00:11.291Z,55
2019-01-20T08:01:21.453Z,55
2019-01-20T08:02:31.568Z,60
2019-01-20T08:03:41.417Z,55
2019-01-20T08:04:51.549Z,60
2019-01-20T08:06:01.475Z,60
2019-01-20T08:07:11.603Z,65
2019-01-20T08:08:21.478Z,65
2019-01-20T08:09:31.613Z,70
2019-01-20T08:10:41.757Z,75
2019-01-20T08:11:51.869Z,75
2019-01-20T08:13:02.016Z,75
2019-01-20T08:14:12.130Z,80
2019-01-20T08:15:22.269Z,80
2019-01-20T08:16:32.393Z,80
2019-01-20T08:17:42.549Z,80
2019-01-20T08:18:52.704Z,80
2019-01-20T08:20:02.824Z,85
2019-01-20T08:21:12.950Z,85
2019-01-20T08:22:23.064Z,85
2019-01-20T08:23:32.998Z,85
2019-01-20T08:24:43.105Z,85
2019-01-20T08:25:53.010Z,95
2019-01-20T08:27:03.134Z,90
2019-01-20T08:28:13.267Z,95
2019-01-20T08:29:23.440Z,95
2019-01-20T08:30:33.580Z,100
2019-01-20T08:31:43.710Z,105
2019-01-20T08:32:53.816Z,110
2019-01-20T08:34:03.583Z,115
2019-01-20T08:35:13.729Z,115
2019-01-20T08:36:23.860Z,120
2019-01-20T08:37:39.231Z,125
2019-01-20T08:38:49.387Z,130
2019-01-20T08:39:59.524Z,140
2019-01-20T08:41:09.681Z,175
2019-01-20T08:42:19.828Z,225
2019-01-20T08:43:36.457Z,250
2019-01-20T08:44:46.593Z,255
2019-01-20T08:45:56.741Z,270
2019-01-20T08:47:06.885Z,285
2019-01-20T08:48:17.024Z,305
2019-01-20T08:49:27.166Z,325
2019-01-20T08:50:37.276Z,330
2019-01-20T08:51:47.423Z,340
2019-01-20T08:52:57.555Z,355
2019-01-20T08:54:07.907Z,350
2019-01-20T08:55:18.077Z,170
2019-01-20T08:56:28.197Z,400
2019-01-20T08:57:38.306Z,410
2019-01-20T08:58:48.905Z,365
2019-01-20T08:59:59.901Z,345
2019-01-20T09:01:10.636Z,355
2019-01-20T09:02:21.966Z,365
2019-01-20T09:03:32.498Z,380
2019-01-20T09:04:43.184Z,215
2019-01-20T09:05:53.958Z,250
2019-01-20T09:07:04.701Z,400
2019-01-20T09:08:15.462Z,405
2019-01-20T09:09:26.558Z,410
2019-01-20T09:10:37.975Z,300
2019-01-20T09:11:50.032Z,285
2019-01-20T09:13:02.082Z,435
2019-01-20T09:14:12.904Z,450
2019-01-20T09:15:24.930Z,455
2019-01-20T09:16:35.671Z,380
2019-01-20T09:17:46.407Z,475
2019-01-20T09:18:57.777Z,490
2019-01-20T09:20:08.197Z,485
2019-01-20T09:21:18.532Z,495
2019-01-20T09:22:29.249Z,495
2019-01-20T09:23:40.326Z,480
2019-01-20T09:24:51.005Z,410
2019-01-20T09:26:02.505Z,340
2019-01-20T09:27:13.346Z,310
2019-01-20T09:28:24.038Z,280
2019-01-20T09:29:34.546Z,265
2019-01-20T09:30:45.990Z,265
2019-01-20T09:31:57.844Z,270
2019-01-20T09:33:10.658Z,285
2019-01-20T09:34:21.874Z,325
2019-01-20T09:35:33.304Z,400
2019-01-20T09:36:44.066Z,455
2019-01-20T09:37:54.504Z,465
2019-01-20T09:39:04.696Z,460
2019-01-20T09:40:14.829Z,450
2019-01-20T09:41:25.003Z,445
2019-01-20T09:42:35.160Z,445
2019-01-20T09:43:52.176Z,410
2019-01-20T09:45:02.307Z,305
2019-01-20T09:46:12.472Z,235
2019-01-20T09:47:22.826Z,225
2019-01-20T09:48:33.002Z,235
2019-01-20T09:49:43.140Z,250
2019-01-20T09:50:53.310Z,270
2019-01-20T09:52:03.486Z,290
2019-01-20T09:53:13.630Z,320
2019-01-20T09:54:23.766Z,380
2019-01-20T09:55:34.013Z,465
2019-01-20T09:56:44.153Z,560
2019-01-20T09:57:54.307Z,645
2019-01-20T09:59:04.521Z,720
2019-01-20T10:00:14.736Z,780
2019-01-20T10:01:25.068Z,775
2019-01-20T10:02:36.862Z,785
2019-01-20T10:03:47.045Z,790
2019-01-20T10:04:57.212Z,795
2019-01-20T10:06:07.156Z,805
2019-01-20T10:07:20.895Z,805
2019-01-20T10:08:31.066Z,810
2019-01-20T10:09:41.231Z,815
2019-01-20T10:10:51.392Z,820
2019-01-20T10:12:01.605Z,830
2019-01-20T10:13:11.739Z,825
2019-01-20T10:14:21.885Z,825
2019-01-20T10:15:32.059Z,840
2019-01-20T10:16:42.227Z,840
2019-01-20T10:17:52.018Z,850
2019-01-20T10:19:02.190Z,855
2019-01-20T10:20:12.348Z,860
2019-01-20T10:21:22.571Z,865
2019-01-20T10:22:33.196Z,870
2019-01-20T10:23:43.342Z,865
2019-01-20T10:24:55.060Z,870
2019-01-20T10:26:05.327Z,870
2019-01-20T10:27:15.799Z,870
2019-01-20T10:28:26.058Z,880
2019-01-20T10:29:36.799Z,890
2019-01-20T10:30:46.863Z,890
2019-01-20T10:31:57.100Z,895
2019-01-20T10:33:08.174Z,900
2019-01-20T10:34:18.361Z,900
2019-01-20T10:35:28.540Z,900
2019-01-20T10:36:38.451Z,905
2019-01-20T10:37:48.604Z,905
2019-01-20T10:38:58.785Z,915
2019-01-20T10:40:08.989Z,925
2019-01-20T10:41:19.141Z,915
2019-01-20T10:42:29.319Z,915
2019-01-20T10:43:39.526Z,920
2019-01-20T10:44:49.673Z,915
2019-01-20T10:45:59.859Z,930
2019-01-20T10:47:10.047Z,935
2019-01-20T10:48:20.237Z,925
2019-01-20T10:49:30.474Z,925
2019-01-20T10:50:40.637Z,925
2019-01-20T10:51:50.783Z,930
2019-01-20T10:53:00.959Z,930
2019-01-20T10:54:12.107Z,940
2019-01-20T10:55:22.301Z,935
2019-01-20T10:57:46.260Z,950
2019-01-20T10:58:56.442Z,950
2019-01-20T11:00:06.601Z,935
2019-01-20T11:01:16.755Z,955
2019-01-20T11:02:26.702Z,945
2019-01-20T11:03:36.869Z,945
2019-01-20T11:04:47.040Z,945
2019-01-20T11:05:57.238Z,950
2019-01-20T11:07:07.414Z,950
2019-01-20T11:08:17.222Z,935
2019-01-20T11:09:27.387Z,930
2019-01-20T11:10:37.606Z,940
2019-01-20T11:11:47.751Z,955
2019-01-20T11:12:57.595Z,935
2019-01-20T11:14:14.476Z,940
2019-01-20T11:15:24.665Z,950
2019-01-20T11:16:34.468Z,950
2019-01-20T11:17:44.687Z,955
2019-01-20T11:18:54.865Z,945
2019-01-20T11:20:05.047Z,950
2019-01-20T11:21:15.269Z,955
2019-01-20T11:22:25.454Z,945
2019-01-20T11:23:35.637Z,950
2019-01-20T11:24:45.807Z,945
2019-01-20T11:25:56.042Z,955
2019-01-20T11:27:06.231Z,950
2019-01-20T11:28:16.411Z,950
2019-01-20T11:29:26.597Z,955
2019-01-20T11:30:36.794Z,955
2019-01-20T11:31:46.732Z,955
2019-01-20T11:32:56.903Z,955
2019-01-20T11:34:07.072Z,965
2019-01-20T11:35:17.243Z,970
2019-01-20T11:36:27.450Z,965
2019-01-20T11:37:37.674Z,975
2019-01-20T11:38:47.830Z,970
2019-01-20T11:40:03.433Z,970
2019-01-20T11:41:14.596Z,965
2019-01-20T11:42:24.544Z,970
2019-01-20T11:43:34.697Z,975
2019-01-20T11:44:44.842Z,965
2019-01-20T11:45:55.009Z,960
2019-01-20T11:47:05.210Z,950
2019-01-20T11:48:16.833Z,955
2019-01-20T11:49:27.027Z,960
2019-01-20T11:50:37.220Z,960
2019-01-20T11:51:47.446Z,965
2019-01-20T11:52:57.632Z,955
2019-01-20T11:54:07.808Z,955
2019-01-20T11:56:29.169Z,955
2019-01-20T11:57:39.351Z,945
2019-01-20T11:58:49.542Z,925
2019-01-20T11:59:59.748Z,855
2019-01-20T12:01:09.940Z,740
2019-01-20T12:02:27.152Z,715
2019-01-20T12:03:37.356Z,685
2019-01-20T12:04:47.521Z,675
2019-01-20T12:05:57.700Z,600
2019-01-20T12:07:07.872Z,765
2019-01-20T12:08:18.057Z,780
2019-01-20T12:09:28.236Z,795
2019-01-20T12:10:38.445Z,810
2019-01-20T12:11:48.714Z,800
2019-01-20T12:12:58.909Z,805
2019-01-20T12:14:09.096Z,835
2019-01-20T12:15:19.334Z,870
2019-01-20T12:16:29.515Z,890
2019-01-20T12:17:39.708Z,905
2019-01-20T12:18:50.473Z,910
2019-01-20T12:20:00.767Z,910
2019-01-20T12:21:11.042Z,855
2019-01-20T12:22:21.208Z,890
2019-01-20T12:23:31.357Z,880
2019-01-20T12:24:41.559Z,885
2019-01-20T12:25:51.448Z,870
2019-01-20T12:27:01.633Z,865
2019-01-20T12:28:11.795Z,870
2019-01-20T12:29:22.016Z,875
2019-01-20T12:30:32.205Z,895
2019-01-20T12:31:42.390Z,865
2019-01-20T12:32:52.570Z,870
2019-01-20T12:34:02.760Z,860
2019-01-20T12:35:12.945Z,850
2019-01-20T12:36:23.126Z,825
2019-01-20T12:37:33.294Z,770
2019-01-20T12:38:43.526Z,715
2019-01-20T12:39:53.762Z,635
2019-01-20T12:41:03.967Z,535
2019-01-20T12:42:14.160Z,445
2019-01-20T12:43:24.380Z,370
2019-01-20T12:44:41.026Z,315
2019-01-20T12:45:51.232Z,295
2019-01-20T12:47:01.448Z,270
2019-01-20T12:48:11.649Z,230
2019-01-20T12:49:21.817Z,210
2019-01-20T12:50:32.000Z,200
2019-01-20T12:51:42.371Z,185
2019-01-20T12:52:52.673Z,170
2019-01-20T12:54:02.863Z,170
2019-01-20T12:55:14.033Z,170
2019-01-20T12:56:24.239Z,175
2019-01-20T12:57:34.466Z,180
2019-01-20T12:58:44.651Z,180
2019-01-20T12:59:54.854Z,185
2019-01-20T13:01:05.035Z,185
2019-01-20T13:02:15.233Z,185
2019-01-20T13:03:25.414Z,185
2019-01-20T13:04:36.524Z,180
2019-01-20T13:05:46.721Z,175
2019-01-20T13:06:56.881Z,175
2019-01-20T13:08:07.052Z,170
2019-01-20T13:09:17.360Z,170
2019-01-20T13:10:27.526Z,170
2019-01-20T13:11:37.586Z,165
2019-01-20T13:12:47.830Z,165
2019-01-20T13:13:57.999Z,165
2019-01-20T13:15:08.197Z,165
2019-01-20T13:16:18.834Z,160
2019-01-20T13:17:29.083Z,160
2019-01-20T13:18:39.280Z,155
2019-01-20T13:19:49.450Z,150
2019-01-20T13:20:59.643Z,150
2019-01-20T13:22:09.604Z,145
2019-01-20T13:23:19.785Z,150
2019-01-20T13:24:29.960Z,145
2019-01-20T13:25:40.190Z,145
2019-01-20T13:26:50.404Z,140
2019-01-20T13:28:00.694Z,140
2019-01-20T13:29:10.882Z,140
2019-01-20T13:30:21.279Z,135
2019-01-20T13:31:31.505Z,135
2019-01-20T13:32:41.683Z,135
2019-01-20T13:33:51.928Z,130
2019-01-20T13:35:02.119Z,130
2019-01-20T13:36:17.045Z,130
2019-01-20T13:37:27.249Z,125
2019-01-20T13:38:37.402Z,125
2019-01-20T13:39:47.610Z,125
2019-01-20T13:40:57.790Z,125
2019-01-20T13:42:08.174Z,120
2019-01-20T13:43:18.406Z,120
2019-01-20T13:44:28.555Z,120
2019-01-20T13:45:39.101Z,120
2019-01-20T13:46:49.281Z,115
2019-01-20T13:47:59.446Z,115
2019-01-20T13:49:09.345Z,115
2019-01-20T13:50:19.519Z,115
2019-01-20T13:51:29.675Z,110
2019-01-20T13:52:39.825Z,110
2019-01-20T13:53:49.979Z,110
2019-01-20T13:55:00.225Z,110
2019-01-20T13:56:11.063Z,105
2019-01-20T13:57:21.177Z,105
2019-01-20T13:58:31.352Z,105
2019-01-20T13:59:41.495Z,105
2019-01-20T14:00:52.261Z,100
2019-01-20T14:02:02.412Z,100
2019-01-20T14:03:12.588Z,100
2019-01-20T14:04:22.516Z,100
2019-01-20T14:05:32.687Z,100
2019-01-20T14:06:43.581Z,100
2019-01-20T14:07:53.776Z,95
2019-01-20T14:09:03.959Z,95
2019-01-20T14:10:14.129Z,95
2019-01-20T14:11:25.641Z,100
2019-01-20T14:12:35.557Z,90
2019-01-20T14:13:45.719Z,90
2019-01-20T14:15:01.251Z,90
2019-01-20T14:16:11.436Z,90
2019-01-20T14:17:21.601Z,90
2019-01-20T14:18:32.749Z,90
2019-01-20T14:19:42.934Z,90
2019-01-20T14:20:53.129Z,85
2019-01-20T14:22:03.309Z,85
2019-01-20T14:23:13.434Z,85
2019-01-20T14:24:23.220Z,85
2019-01-20T14:25:33.414Z,85
2019-01-20T14:26:43.628Z,85
2019-01-20T14:27:53.769Z,80
2019-01-20T14:29:03.965Z,80
2019-01-20T14:30:14.116Z,80
2019-01-20T14:31:24.335Z,75
2019-01-20T14:32:34.498Z,75
2019-01-20T14:33:44.703Z,75
2019-01-20T14:34:56.212Z,75
2019-01-20T14:36:08.979Z,70
2019-01-20T14:37:21.855Z,70
2019-01-20T14:38:34.990Z,70
2019-01-20T14:39:50.642Z,65
2019-01-20T14:41:04.337Z,65
2019-01-20T14:42:18.006Z,65
2019-01-20T14:43:31.249Z,65
2019-01-20T14:44:44.533Z,60
2019-01-20T14:45:56.561Z,60
2019-01-20T14:47:09.266Z,60
2019-01-20T14:48:22.029Z,60
2019-01-20T14:49:32.307Z,55
2019-01-20T14:50:42.493Z,55
2019-01-20T14:51:52.660Z,55
2019-01-20T14:53:02.862Z,55
2019-01-20T14:54:13.032Z,50
2019-01-20T14:55:23.205Z,50
2019-01-20T14:56:33.406Z,50
2019-01-20T14:57:43.342Z,45
2019-01-20T14:58:53.494Z,45
2019-01-20T15:00:03.670Z,45
2019-01-20T15:01:13.944Z,45
2019-01-20T15:02:24.123Z,40
2019-01-20T15:03:34.316Z,40
2019-01-20T15:04:44.512Z,40
2019-01-20T15:05:54.857Z,40
2019-01-20T15:07:05.070Z,35
2019-01-20T15:08:15.337Z,35
2019-01-20T15:09:25.313Z,35
2019-01-20T15:10:35.501Z,30
2019-01-20T15:11:45.678Z,30
2019-01-20T15:12:55.346Z,30
2019-01-20T15:14:05.506Z,30
2019-01-20T15:15:18.526Z,25
2019-01-20T15:16:28.697Z,25
2019-01-20T15:17:38.902Z,25
2019-01-20T15:18:49.082Z,25
2019-01-20T15:19:59.289Z,20
2019-01-20T15:21:09.527Z,20
2019-01-20T15:22:20.176Z,20
2019-01-20T15:23:30.108Z,20
2019-01-20T15:24:41.168Z,20
2019-01-20T15:25:51.371Z,15
2019-01-20T15:27:01.595Z,15
2019-01-20T15:28:11.754Z,15
2019-01-20T15:29:22.169Z,15
2019-01-20T15:30:32.510Z,10
2019-01-20T15:31:42.709Z,10
2019-01-20T15:32:52.890Z,10
2019-01-20T15:34:02.732Z,10
2019-01-20T15:35:12.933Z,10
2019-01-20T15:36:23.171Z,10
2019-01-20T15:37:33.395Z,5
2019-01-20T15:38:44.310Z,5
2019-01-20T15:39:54.539Z,5
2019-01-20T15:41:04.722Z,5
2019-01-20T15:42:14.874Z,5
2019-01-20T15:43:25.197Z,5
2019-01-20T15:44:35.382Z,5
2019-01-20T15:45:45.545Z,5
2019-01-20T15:46:55.746Z,0
2019-01-20T15:48:06.664Z,0
2019-01-20T15:49:16.922Z,0
2019-01-20T15:50:28.554Z,0
2019-01-20T15:51:38.824Z,0
2019-01-20T15:52:48.745Z,0
2019-01-20T15:53:58.917Z,0
2019-01-20T15:55:09.133Z,0
2019-01-20T15:56:19.332Z,0
2019-01-20T15:57:29.519Z,0
2019-01-20T15:58:39.729Z,0
2019-01-20T15:59:49.700Z,0
2019-01-20T16:00:59.525Z,0
2019-01-20T16:02:10.317Z,0
2019-01-20T16:03:20.884Z,0
2019-01-20T16:04:34.245Z,0
2019-01-20T16:05:44.824Z,0
2019-01-20T16:06:55.418Z,0
2019-01-20T16:08:05.706Z,0
2019-01-20T16:09:16.085Z,0
2019-01-20T16:10:28.122Z,0
2019-01-20T16:11:41.280Z,0
2019-01-20T16:12:51.695Z,0
2019-01-20T16:14:03.854Z,0
2019-01-20T16:15:14.437Z,0
2019-01-20T16:16:24.998Z,0
2019-01-20T16:17:35.237Z,0
2019-01-20T16:18:45.480Z,0
2019-01-20T16:19:55.831Z,0
2019-01-20T16:21:06.066Z,0
2019-01-20T16:22:15.973Z,0
2019-01-20T16:23:26.230Z,0
2019-01-20T16:24:36.400Z,0
2019-01-20T16:25:46.600Z,0
2019-01-20T16:27:00.902Z,0
2019-01-20T16:28:11.339Z,0
2019-01-20T16:29:21.555Z,0
2019-01-20T16:30:31.748Z,0
2019-01-20T16:31:47.109Z,0
2019-01-20T16:32:57.302Z,0
2019-01-20T16:34:07.544Z,0
2019-01-20T16:35:17.740Z,0
2019-01-20T16:36:27.900Z,0
2019-01-20T16:37:38.111Z,0
2019-01-20T16:38:48.300Z,0
2019-01-20T16:39:58.212Z,0
2019-01-20T16:41:08.424Z,0
2019-01-20T16:42:18.690Z,0
2019-01-20T16:43:28.870Z,0
2019-01-20T16:44:39.114Z,0
2019-01-20T16:45:52.011Z,0
2019-01-20T16:47:02.225Z,0
2019-01-20T16:48:12.448Z,0
2019-01-20T16:49:23.735Z,0
2019-01-20T16:50:33.781Z,0
2019-01-20T16:51:43.975Z,0